Time;durP1;ratioP1;P1;durP2;ratioP2;P2;SDS_P1;SDS_P2;PMS_P1;PMS_P2;Temp;Humidity;BMP_temperature;BMP_pressure;BME280_temperature;BME280_humidity;BME280_pressure;Samples;Min_cycle;Max_cycle;Signal;HPM_P1;HPM_P2
2022/10/23 00:01:43;;;;;;;62.78;59.33;;;;;;;15.27;71.29;101097.00;5035439;27;104268;-50
2022/10/23 00:04:12;;;;;;;61.33;57.88;;;;;;;15.30;71.70;101099.16;5035976;27;102306;-50
2022/10/23 00:06:39;;;;;;;58.30;54.92;;;;;;;15.27;nan;101097.00;5021535;27;101924;-51
2022/10/23 00:09:08;;;;;;;65.35;61.80;;;;;;;15.28;71.56;101090.41;5022907;28;102179;-51
2022/10/23 00:11:36;;;;;;;57.13;53.97;;;;;;;15.27;71.51;101078.63;5031863;27;104061;-51
2022/10/23 00:14:06;;;;;;;54.37;51.27;;;;;;;15.27;71.37;101073.16;5034751;27;102274;-50
2022/10/23 00:16:33;;;;;;;57.60;54.40;;;;;;;15.29;71.51;101070.09;5017900;28;102223;-51
2022/10/23 00:19:00;;;;;;;61.03;57.50;;;;;;;15.29;71.59;101064.59;5031184;27;102065;-50
2022/10/23 00:21:28;;;;;;;64.18;60.60;;;;;;;15.28;71.77;101058.31;5031039;27;103886;-50
2022/10/23 00:23:54;;;;;;;56.10;52.85;;;;;;;15.29;71.63;101061.88;5015660;28;102357;-51
2022/10/23 00:26:21;;;;;;;65.47;61.92;;;;;;;15.27;71.81;101048.47;5030147;27;102055;-50
2022/10/23 00:28:52;;;;;;;59.85;56.50;;;;;;;15.29;71.76;101042.69;5024734;27;102783;-51
2022/10/23 00:31:21;;;;;;;54.38;51.33;;;;;;;15.27;71.61;101039.44;5013970;28;104042;-51
2022/10/23 00:33:47;;;;;;;53.23;50.33;;;;;;;15.27;71.90;101036.69;5034012;27;102208;-50
2022/10/23 00:36:15;;;;;;;61.80;58.40;;;;;;;15.27;71.73;101034.75;5025312;27;102230;-50
2022/10/23 00:38:42;;;;;;;56.28;53.30;;;;;;;15.28;71.73;101030.09;5016010;28;101994;-50
2022/10/23 00:41:13;;;;;;;57.53;54.28;;;;;;;15.28;71.56;101019.94;5014771;28;104055;-50
2022/10/23 00:44:01;;;;;;;54.58;51.63;;;;;;;15.29;71.57;101020.75;5020029;28;102349;-50
2022/10/23 00:46:28;;;;;;;51.83;48.80;;;;;;;15.27;71.80;101021.03;5031751;27;103707;-50
2022/10/23 00:48:56;;;;;;;56.33;53.42;;;;;;;15.29;71.77;101023.47;5016900;27;102415;-50
2022/10/23 00:51:23;;;;;;;54.38;51.28;;;;;;;15.29;71.70;101015.25;5027814;27;103950;-50
2022/10/23 00:53:56;;;;;;;58.75;55.42;;;;;;;15.29;71.88;101027.06;5016519;27;102579;-50
2022/10/23 00:56:25;;;;;;;56.90;53.47;;;;;;;15.30;71.91;101031.44;5029213;28;102199;-50
2022/10/23 00:58:52;;;;;;;56.10;52.92;;;;;;;15.29;71.72;101015.25;5012457;28;102275;-50
2022/10/23 01:01:22;;;;;;;62.08;58.70;;;;;;;15.29;71.81;101001.53;4994678;28;103968;-50
2022/10/23 01:03:49;;;;;;;58.50;55.28;;;;;;;15.29;71.73;100996.06;4994460;28;102160;-51
2022/10/23 01:06:28;;;;;;;58.15;54.90;;;;;;;15.29;72.08;100996.06;4995339;28;102340;-50
2022/10/23 01:09:05;;;;;;;57.17;53.85;;;;;;;15.29;71.62;100983.19;5002425;28;102161;-50
2022/10/23 01:11:38;;;;;;;57.45;54.30;;;;;;;15.29;71.79;100987.84;5012312;28;104142;-50
2022/10/23 01:14:14;;;;;;;60.67;57.08;;;;;;;15.29;71.88;100988.69;5001873;27;102182;-50
2022/10/23 01:16:51;;;;;;;55.58;52.45;;;;;;;15.28;71.73;100989.75;5023157;28;102142;-50
2022/10/23 01:19:23;;;;;;;56.95;53.80;;;;;;;15.28;72.08;100976.06;5024652;27;102516;-51
2022/10/23 01:21:59;;;;;;;56.42;53.40;;;;;;;15.28;72.07;100980.72;5021845;27;103911;-51
2022/10/23 01:24:37;;;;;;;58.05;54.88;;;;;;;15.29;72.13;100966.75;5035210;27;102242;-51
2022/10/23 01:27:22;;;;;;;59.30;56.00;;;;;;;15.27;72.14;100955.25;5022735;27;102637;-51
2022/10/23 01:30:00;;;;;;;59.30;56.08;;;;;;;15.29;71.99;100949.44;5023366;27;102662;-50
2022/10/23 01:32:36;;;;;;;54.30;51.35;;;;;;;15.30;71.85;100940.13;5027386;27;103954;-50
2022/10/23 01:35:10;;;;;;;63.00;59.58;;;;;;;15.30;72.22;100940.13;5034303;27;101988;-50
2022/10/23 01:37:41;;;;;;;56.42;53.20;;;;;;;15.29;71.99;100925.63;5022132;27;102289;-51
2022/10/23 01:40:15;;;;;;;60.50;57.20;;;;;;;15.28;72.25;100942.34;5026038;27;102086;-50
2022/10/23 01:42:49;;;;;;;60.13;56.80;;;;;;;15.29;72.24;100943.97;5015934;28;103956;-50
2022/10/23 01:45:20;;;;;;;61.72;58.35;;;;;;;15.31;72.21;100950.78;5028489;27;102115;-50
2022/10/23 01:47:49;;;;;;;63.53;60.00;;;;;;;15.29;71.88;100943.97;5027647;27;102660;-50
2022/10/23 01:50:18;;;;;;;58.88;55.70;;;;;;;15.29;71.92;100938.47;5019723;28;102212;-50
2022/10/23 01:52:46;;;;;;;59.85;56.65;;;;;;;15.28;71.96;100936.84;5017977;28;104039;-50
2022/10/23 01:55:14;;;;;;;59.60;56.15;;;;;;;15.29;72.17;100938.47;5036225;27;102197;-51
2022/10/23 01:57:43;;;;;;;68.65;64.95;;;;;;;15.29;71.97;100939.31;5036064;27;102262;-50
2022/10/23 02:00:14;;;;;;;58.13;54.95;;;;;;;15.30;71.83;100937.38;5020815;27;102421;-50
2022/10/23 02:02:44;;;;;;;63.65;60.13;;;;;;;15.30;72.04;100945.63;5036690;27;108110;-51
2022/10/23 02:05:16;;;;;;;56.90;53.72;;;;;;;15.30;72.21;100945.63;5032024;27;102384;-51
2022/10/23 02:07:44;;;;;;;67.75;63.95;;;;;;;15.30;72.14;100946.44;5024648;27;102001;-51
2022/10/23 02:10:14;;;;;;;61.15;57.83;;;;;;;15.29;72.21;100938.47;5022361;27;102730;-51
2022/10/23 02:12:50;;;;;;;58.03;54.72;;;;;;;15.29;72.17;100927.50;5036427;27;103844;-50
2022/10/23 02:15:27;;;;;;;57.08;53.97;;;;;;;15.30;72.17;100918.19;5036678;27;102533;-50
2022/10/23 02:18:06;;;;;;;57.23;54.13;;;;;;;15.30;71.91;100923.69;5034681;27;102411;-50
2022/10/23 02:20:37;;;;;;;56.95;53.75;;;;;;;15.29;72.34;100930.25;5036621;27;102057;-51
2022/10/23 02:23:14;;;;;;;61.28;57.90;;;;;;;15.31;72.33;100931.59;5027752;27;103931;-51
2022/10/23 02:25:47;;;;;;;56.28;53.28;;;;;;;15.30;72.04;100934.66;5028228;27;102066;-50
2022/10/23 02:28:18;;;;;;;55.38;52.33;;;;;;;15.30;72.23;100942.88;5030321;27;102306;-50
2022/10/23 02:30:49;;;;;;;65.75;62.17;;;;;;;15.30;71.96;100945.63;5026537;27;102887;-51
2022/10/23 02:33:18;;;;;;;67.03;63.40;;;;;;;15.31;72.07;100947.25;5016914;28;104038;-50
2022/10/23 02:35:46;;;;;;;58.10;54.42;;;;;;;15.32;71.94;100943.38;5031857;27;102515;-50
2022/10/23 02:38:34;;;;;;;59.67;56.45;;;;;;;15.31;72.00;100953.53;5025447;27;102529;-50
2022/10/23 02:41:15;;;;;;;62.78;59.50;;;;;;;15.32;72.31;100943.38;5023814;27;102232;-50
2022/10/23 02:43:55;;;;;;;57.33;54.30;;;;;;;15.31;72.10;100947.25;4996330;28;103973;-50
2022/10/23 02:46:28;;;;;;;55.13;52.13;;;;;;;15.32;72.25;100951.59;5006408;27;102482;-50
2022/10/23 02:49:08;;;;;;;62.15;58.78;;;;;;;15.30;71.92;100951.91;5018673;27;102367;-51
2022/10/23 02:51:50;;;;;;;60.47;57.20;;;;;;;15.30;72.13;100951.91;5017230;28;102717;-51
2022/10/23 02:54:28;;;;;;;62.22;58.67;;;;;;;15.31;72.28;100958.22;5015202;28;104051;-50
2022/10/23 02:57:01;;;;;;;57.05;54.05;;;;;;;15.31;72.17;100969.16;5003104;28;102003;-50
2022/10/23 02:59:36;;;;;;;61.83;58.20;;;;;;;15.30;72.22;100962.88;5008655;28;102359;-50
2022/10/23 03:02:13;;;;;;;52.72;49.75;;;;;;;15.31;71.81;100974.66;5015028;28;102394;-50
2022/10/23 03:04:43;;;;;;;55.65;52.80;;;;;;;15.32;71.85;100981.75;5007341;28;103981;-50
2022/10/23 03:07:13;;;;;;;58.80;55.70;;;;;;;15.31;71.91;100985.63;5007469;27;102023;-50
2022/10/23 03:09:39;;;;;;;57.30;54.05;;;;;;;15.31;72.21;100993.84;5023199;27;102157;-50
2022/10/23 03:12:07;;;;;;;61.50;58.28;;;;;;;15.30;71.92;100995.78;5028756;27;102179;-50
2022/10/23 03:14:34;;;;;;;60.92;57.72;;;;;;;15.31;72.18;101000.16;5020353;27;103948;-50
2022/10/23 03:17:00;;;;;;;58.58;55.33;;;;;;;15.32;71.82;100990.00;5015050;28;102192;-50
2022/10/23 03:19:28;;;;;;;59.55;56.28;;;;;;;15.30;72.13;100978.53;5015341;28;101963;-55
2022/10/23 03:21:57;;;;;;;58.55;55.45;;;;;;;15.31;71.83;100978.22;5031575;27;102641;-50
2022/10/23 03:24:23;;;;;;;65.30;61.92;;;;;;;15.31;72.18;100985.63;5023284;28;103955;-50
2022/10/23 03:26:50;;;;;;;60.53;57.25;;;;;;;15.31;71.78;100980.16;5030578;27;101986;-50
2022/10/23 03:29:17;;;;;;;65.20;61.65;;;;;;;15.31;71.77;100988.38;5015786;28;101989;-50
2022/10/23 03:31:43;;;;;;;63.10;59.75;;;;;;;15.31;72.14;100997.41;5027134;28;102197;-50
2022/10/23 03:34:10;;;;;;;62.42;59.03;;;;;;;15.32;72.15;100998.22;5035724;27;104783;-50
2022/10/23 03:36:40;;;;;;;63.13;59.80;;;;;;;15.32;72.18;100995.47;5025308;27;102418;-50
2022/10/23 03:39:06;;;;;;;68.10;64.43;;;;;;;15.32;72.08;100995.47;5025335;27;102049;-50
2022/10/23 03:41:34;;;;;;;62.22;58.92;;;;;;;15.32;72.30;100987.25;5026742;28;102326;-50
2022/10/23 03:44:00;;;;;;;58.47;55.38;;;;;;;15.31;72.32;100980.16;5020366;27;104079;-50
2022/10/23 03:46:27;;;;;;;62.15;58.63;;;;;;;15.30;72.11;100957.41;4998791;28;102658;-50
2022/10/23 03:48:56;;;;;;;60.47;57.28;;;;;;;15.31;71.90;100960.94;5003449;28;102315;-50
2022/10/23 03:51:23;;;;;;;61.28;58.03;;;;;;;15.30;72.11;100957.41;5033098;27;102345;-50
2022/10/23 03:53:51;;;;;;;60.30;57.13;;;;;;;15.30;72.02;100951.91;5032446;27;108904;-51
2022/10/23 03:56:17;;;;;;;63.85;60.45;;;;;;;15.30;71.85;100956.59;5023944;27;102169;-50
2022/10/23 03:58:44;;;;;;;58.63;55.42;;;;;;;15.31;71.98;100953.53;5029922;27;101961;-51
2022/10/23 04:01:11;;;;;;;62.97;59.53;;;;;;;15.31;72.29;100958.22;5030908;27;102489;-50
2022/10/23 04:03:37;;;;;;;61.50;58.25;;;;;;;15.31;72.13;100953.53;5023958;27;104999;-50
2022/10/23 04:06:04;;;;;;;66.15;62.70;;;;;;;15.33;72.24;100961.47;5034537;27;102147;-50
2022/10/23 04:08:32;;;;;;;60.35;57.15;;;;;;;15.31;72.06;100963.69;5022424;27;102240;-50
2022/10/23 04:11:02;;;;;;;57.92;54.78;;;;;;;15.32;72.21;100973.53;5036513;27;102234;-50
2022/10/23 04:13:29;;;;;;;64.47;60.85;;;;;;;15.31;72.18;100972.72;5034729;27;103987;-50
2022/10/23 04:15:58;;;;;;;;;;;;;;;15.31;72.01;100982.88;5025557;27;102362;-50
2022/10/23 04:18:26;;;;;;;44.85;42.40;;;;;;;15.32;71.96;100987.25;5023115;27;102611;-50
2022/10/23 04:20:52;;;;;;;50.65;47.78;;;;;;;15.32;71.91;100987.25;5023456;27;102724;-50
2022/10/23 04:23:19;;;;;;;63.53;60.17;;;;;;;15.32;71.81;100981.75;5014375;28;104060;-50
2022/10/23 04:25:46;;;;;;;53.20;50.33;;;;;;;15.30;71.91;100979.34;5024232;27;102235;-50
2022/10/23 04:28:14;;;;;;;56.53;53.47;;;;;;;15.31;72.27;100980.94;5033253;27;102290;-50
2022/10/23 04:30:40;;;;;;;59.40;56.20;;;;;;;15.32;71.98;100979.03;5029281;27;102146;-50
2022/10/23 04:33:07;;;;;;;63.45;59.90;;;;;;;15.31;72.17;100964.50;5029333;27;104103;-50
2022/10/23 04:35:34;;;;;;;57.22;54.22;;;;;;;15.30;71.95;100956.59;5035515;27;102291;-50
2022/10/23 04:38:00;;;;;;;57.95;54.83;;;;;;;15.31;71.83;100953.53;5029665;27;102087;-50
2022/10/23 04:40:27;;;;;;;60.15;57.00;;;;;;;15.32;71.98;100954.34;5024514;28;102529;-50
2022/10/23 04:42:53;;;;;;;50.78;48.15;;;;;;;15.32;71.79;100959.81;5023524;28;104106;-50
2022/10/23 04:45:21;;;;;;;59.90;56.65;;;;;;;15.31;71.89;100961.75;5018338;28;102534;-50
2022/10/23 04:47:48;;;;;;;63.78;60.45;;;;;;;15.31;72.25;100969.97;5017276;28;102345;-50
2022/10/23 04:50:15;;;;;;;55.13;52.20;;;;;;;15.32;72.29;100962.56;5024283;27;102132;-50
2022/10/23 04:52:42;;;;;;;56.80;53.70;;;;;;;15.32;71.89;100962.56;5014628;28;103704;-50
2022/10/23 04:55:09;;;;;;;57.55;54.55;;;;;;;15.31;72.20;100963.69;5032935;27;102910;-50
2022/10/23 04:57:36;;;;;;;62.40;59.13;;;;;;;15.31;72.09;100959.03;5029630;27;102665;-50
2022/10/23 05:00:05;;;;;;;57.47;54.38;;;;;;;15.31;72.02;100961.75;5028782;27;102094;-51
2022/10/23 05:02:33;;;;;;;57.75;54.75;;;;;;;15.31;71.75;100955.47;5032538;27;103715;-50
2022/10/23 05:04:59;;;;;;;60.50;57.20;;;;;;;15.31;72.23;100958.22;5026823;27;102083;-50
2022/10/23 05:07:26;;;;;;;59.05;55.92;;;;;;;15.32;71.92;100959.81;5029426;27;102482;-50
2022/10/23 05:09:54;;;;;;;67.80;64.15;;;;;;;15.32;71.93;100968.06;5022755;28;102447;-50
2022/10/23 05:12:21;;;;;;;61.40;58.28;;;;;;;15.31;72.24;100983.69;5027389;27;103894;-50
2022/10/23 05:14:48;;;;;;;56.07;52.97;;;;;;;15.32;71.94;100984.50;5027460;27;102256;-50
2022/10/23 05:17:21;;;;;;;59.92;56.67;;;;;;;15.30;71.97;100984.81;5034624;27;102344;-50
2022/10/23 05:19:53;;;;;;;61.55;58.40;;;;;;;15.32;72.29;100987.25;5020102;27;102609;-50
2022/10/23 05:22:24;;;;;;;56.97;53.85;;;;;;;15.30;72.16;100994.97;5019989;27;104102;-50
2022/10/23 05:24:52;;;;;;;57.10;53.92;;;;;;;15.32;71.83;100992.72;5030765;27;102564;-50
2022/10/23 05:27:18;;;;;;;68.88;65.05;;;;;;;15.31;71.95;100991.91;5018030;28;102187;-50
2022/10/23 05:29:45;;;;;;;60.83;57.60;;;;;;;15.32;72.14;100992.72;5016467;28;102166;-50
2022/10/23 05:32:14;;;;;;;56.72;53.63;;;;;;;15.31;71.75;100999.34;5001911;27;103992;-50
2022/10/23 05:34:42;;;;;;;58.30;54.92;;;;;;;15.31;72.00;101007.56;4999595;28;102500;-50
2022/10/23 05:37:13;;;;;;;60.00;56.63;;;;;;;15.31;71.91;101013.03;5013349;28;102301;-51
2022/10/23 05:39:41;;;;;;;60.35;57.10;;;;;;;15.32;71.79;101020.16;5014906;28;103761;-50
2022/10/23 05:42:08;;;;;;;56.28;53.28;;;;;;;15.32;72.17;101036.59;5010603;28;104186;-50
2022/10/23 05:44:35;;;;;;;60.20;57.03;;;;;;;15.31;72.23;101029.50;5015078;28;102702;-51
2022/10/23 05:47:02;;;;;;;55.78;52.80;;;;;;;15.32;71.94;101036.59;5012562;28;103497;-50
2022/10/23 05:49:28;;;;;;;63.50;60.00;;;;;;;15.31;72.12;101035.78;5013854;28;102590;-50
2022/10/23 05:51:55;;;;;;;64.63;61.38;;;;;;;15.31;71.91;101045.94;5016312;28;103447;-50
2022/10/23 05:54:23;;;;;;;55.47;52.40;;;;;;;15.31;72.00;101040.47;5017452;28;102281;-50
2022/10/23 05:56:50;;;;;;;58.80;55.72;;;;;;;15.31;72.26;101052.25;5004258;28;102481;-50
2022/10/23 05:59:17;;;;;;;62.57;59.10;;;;;;;15.31;71.81;101048.69;5012685;28;102397;-50
2022/10/23 06:01:44;;;;;;;62.83;59.25;;;;;;;15.31;72.02;101059.66;5016271;28;104197;-50
2022/10/23 06:04:10;;;;;;;67.72;64.13;;;;;;;15.32;72.21;101053.06;5014888;28;104509;-50
2022/10/23 06:06:37;;;;;;;57.60;54.42;;;;;;;15.31;72.12;101045.94;5005982;28;102376;-50
2022/10/23 06:09:04;;;;;;;59.60;56.53;;;;;;;15.33;71.76;101043.75;5012230;28;102406;-50
2022/10/23 06:11:31;;;;;;;62.15;58.95;;;;;;;15.31;72.18;101051.44;5009646;28;104097;-51
2022/10/23 06:13:59;;;;;;;57.47;54.28;;;;;;;15.32;71.91;101042.91;5021841;27;102358;-55
2022/10/23 06:16:28;;;;;;;61.45;58.15;;;;;;;15.31;72.13;101037.72;5028678;27;102453;-50
2022/10/23 06:18:56;;;;;;;66.72;63.20;;;;;;;15.31;71.93;101029.50;5031605;27;102506;-51
2022/10/23 06:21:23;;;;;;;68.07;64.47;;;;;;;15.31;71.94;101029.50;5032786;27;103913;-51
2022/10/23 06:23:51;;;;;;;56.30;53.30;;;;;;;15.32;72.26;101028.38;5018633;27;102588;-51
2022/10/23 06:26:18;;;;;;;63.78;60.22;;;;;;;15.32;71.75;101031.94;5027135;28;102072;-50
2022/10/23 06:28:47;;;;;;;65.93;62.58;;;;;;;15.31;71.77;101033.06;5022004;28;102218;-51
2022/10/23 06:31:17;;;;;;;57.33;54.25;;;;;;;15.31;72.02;101041.28;5024030;27;103964;-50
2022/10/23 06:33:44;;;;;;;58.72;55.60;;;;;;;15.32;72.23;101042.09;5030402;27;102505;-51
2022/10/23 06:36:11;;;;;;;63.08;59.67;;;;;;;15.31;72.16;101041.28;5024129;28;102396;-51
2022/10/23 06:38:39;;;;;;;63.53;60.08;;;;;;;15.32;71.81;101053.06;5038133;27;102275;-51
2022/10/23 06:41:07;;;;;;;63.17;59.78;;;;;;;15.32;71.92;101053.06;5036282;27;103911;-53
2022/10/23 06:43:34;;;;;;;67.53;63.95;;;;;;;15.32;71.85;101053.06;5028869;27;102511;-51
2022/10/23 06:46:03;;;;;;;63.63;60.13;;;;;;;15.31;71.92;101048.69;5036243;27;102310;-50
2022/10/23 06:48:30;;;;;;;60.10;56.97;;;;;;;15.32;72.08;101042.09;5037071;27;102507;-50
2022/10/23 06:50:57;;;;;;;64.43;61.13;;;;;;;15.32;71.85;101047.56;5036242;27;103931;-50
2022/10/23 06:53:24;;;;;;;64.53;61.03;;;;;;;15.30;72.20;101050.63;5036566;27;102487;-51
2022/10/23 06:55:51;;;;;;;66.78;63.22;;;;;;;15.33;72.08;101049.22;5034126;27;101996;-50
2022/10/23 06:58:17;;;;;;;62.78;59.38;;;;;;;15.34;72.22;101050.84;5026773;27;103668;-50
2022/10/23 07:00:44;;;;;;;63.65;60.35;;;;;;;15.33;72.22;101054.72;5033093;27;103923;-50
2022/10/23 07:03:12;;;;;;;66.28;62.78;;;;;;;15.32;72.11;101053.06;5032319;27;102475;-50
2022/10/23 07:05:39;;;;;;;64.77;61.30;;;;;;;15.32;72.08;101058.53;5033336;27;102141;-51
2022/10/23 07:08:06;;;;;;;66.13;62.45;;;;;;;15.33;71.92;101060.19;5031167;28;102249;-50
2022/10/23 07:10:33;;;;;;;68.80;65.22;;;;;;;15.33;72.34;101050.03;5024713;27;104813;-51
2022/10/23 07:13:02;;;;;;;63.30;60.05;;;;;;;15.33;71.90;101054.72;5033207;27;102330;-51
2022/10/23 07:15:29;;;;;;;56.70;53.55;;;;;;;15.32;72.15;101053.06;5035300;27;102263;-50
2022/10/23 07:17:55;;;;;;;60.13;56.95;;;;;;;15.32;72.02;101058.53;5026182;27;102890;-50
2022/10/23 07:20:24;;;;;;;66.63;63.13;;;;;;;15.33;72.27;101055.53;5012634;27;103759;-50
2022/10/23 07:22:51;;;;;;;65.63;62.05;;;;;;;15.32;71.89;101062.09;5010888;28;102193;-50
2022/10/23 07:25:17;;;;;;;67.78;64.20;;;;;;;15.33;72.16;101060.19;5035957;27;102311;-51
2022/10/23 07:27:44;;;;;;;65.90;62.38;;;;;;;15.33;72.16;101050.03;5035283;27;102332;-50
2022/10/23 07:30:13;;;;;;;64.65;61.28;;;;;;;15.33;72.00;101049.22;5025100;27;104108;-50
2022/10/23 07:32:40;;;;;;;67.70;63.97;;;;;;;15.34;72.21;101050.84;5022411;28;102325;-50
2022/10/23 07:35:08;;;;;;;67.47;63.85;;;;;;;15.33;71.83;101046.47;5026269;27;102175;-51
2022/10/23 07:37:36;;;;;;;61.30;58.03;;;;;;;15.33;71.94;101054.72;5032491;27;103140;-50
2022/10/23 07:40:07;;;;;;;61.08;57.83;;;;;;;15.32;72.23;101053.88;5021976;27;104130;-50
2022/10/23 07:42:35;;;;;;;62.22;58.90;;;;;;;15.32;72.36;101053.06;5015824;27;102291;-50
2022/10/23 07:45:03;;;;;;;66.60;63.05;;;;;;;15.33;71.86;101043.75;5007206;27;102302;-50
2022/10/23 07:47:31;;;;;;;63.47;60.13;;;;;;;15.33;72.25;101050.03;5011348;28;102541;-50
2022/10/23 07:49:58;;;;;;;70.05;66.30;;;;;;;15.34;72.24;101056.34;5008271;28;103574;-50
2022/10/23 07:52:24;;;;;;;65.72;62.10;;;;;;;15.33;71.86;101054.72;5012035;28;102396;-51
2022/10/23 07:54:52;;;;;;;62.80;59.40;;;;;;;15.34;71.90;101050.84;5013194;28;102311;-50
2022/10/23 07:57:20;;;;;;;68.35;64.65;;;;;;;15.32;72.31;101039.34;5012836;28;102200;-50
2022/10/23 07:59:47;;;;;;;63.50;60.15;;;;;;;15.33;72.27;101038.25;5007349;28;103882;-50
2022/10/23 08:02:15;;;;;;;68.97;65.13;;;;;;;15.33;71.82;101046.47;5004168;28;102524;-50
2022/10/23 08:04:41;;;;;;;68.25;64.55;;;;;;;15.33;72.33;101044.56;5023926;27;102400;-50
2022/10/23 08:07:08;;;;;;;65.03;61.38;;;;;;;15.35;72.07;101047.00;5018656;27;102290;-50
2022/10/23 08:09:37;;;;;;;;;;;;;;;15.38;72.32;101057.38;5005606;28;104086;-50
2022/10/23 08:12:06;;;;;;;56.50;53.35;;;;;;;15.38;72.24;101057.38;5007655;28;102280;-50
2022/10/23 08:14:35;;;;;;;56.33;53.25;;;;;;;15.38;72.13;101047.22;5008718;28;102595;-51
2022/10/23 08:17:03;;;;;;;64.20;60.65;;;;;;;15.41;72.37;101053.22;5012081;28;102271;-50
2022/10/23 08:19:30;;;;;;;64.40;60.88;;;;;;;15.41;72.11;101064.19;5029619;27;103857;-53
2022/10/23 08:21:57;;;;;;;71.07;67.20;;;;;;;15.39;72.43;101064.47;5029523;27;102806;-50
2022/10/23 08:24:23;;;;;;;68.97;65.18;;;;;;;15.40;71.84;101068.88;5023558;28;102335;-50
2022/10/23 08:26:51;;;;;;;63.92;60.50;;;;;;;15.39;72.31;101064.47;5028247;27;102282;-50
2022/10/23 08:29:19;;;;;;;64.95;61.42;;;;;;;15.39;72.00;101075.44;5023911;27;104086;-50
2022/10/23 08:31:46;;;;;;;69.67;65.97;;;;;;;15.40;71.80;101088.06;5000784;28;102592;-51
2022/10/23 08:34:13;;;;;;;65.00;61.33;;;;;;;15.40;71.87;101082.59;5010055;28;102587;-51
2022/10/23 08:36:39;;;;;;;66.38;62.83;;;;;;;15.37;71.95;101089.47;5012314;28;102390;-51
2022/10/23 08:39:06;;;;;;;69.38;65.50;;;;;;;15.37;71.86;101072.19;5010476;28;104230;-51
2022/10/23 08:41:36;;;;;;;67.97;64.15;;;;;;;15.37;72.26;101075.75;5009091;28;102258;-51
2022/10/23 08:44:07;;;;;;;;;;;;;;;15.38;72.05;101076.56;5006389;27;102121;-51
2022/10/23 08:46:39;;;;;;;54.15;51.08;;;;;;;15.37;72.30;101074.94;5005773;28;104553;-51
2022/10/23 08:49:19;;;;;;;59.60;56.22;;;;;;;15.37;71.80;101083.16;5009963;28;104092;-50
2022/10/23 08:51:48;;;;;;;62.42;58.83;;;;;;;15.37;72.14;101086.72;5023181;28;102331;-51
2022/10/23 08:54:21;;;;;;;58.83;55.45;;;;;;;15.37;72.00;101094.13;5005627;28;102830;-50
2022/10/23 08:56:53;;;;;;;61.53;58.05;;;;;;;15.39;71.72;101091.91;5001605;28;102568;-51
2022/10/23 08:59:27;;;;;;;63.33;59.67;;;;;;;15.37;72.29;101085.91;5002945;28;103956;-51
2022/10/23 09:02:01;;;;;;;67.30;63.53;;;;;;;15.38;72.09;101095.75;5012745;28;102149;-51
2022/10/23 09:04:28;;;;;;;62.28;58.55;;;;;;;15.37;71.84;101110.59;5008402;28;104834;-51
2022/10/23 09:07:05;;;;;;;68.28;64.55;;;;;;;15.38;72.22;101109.47;5004198;28;102601;-50
2022/10/23 09:09:52;;;;;;;61.88;58.50;;;;;;;15.38;72.12;101120.44;5003496;28;103912;-51
2022/10/23 09:12:21;;;;;;;59.50;55.78;;;;;;;15.40;72.10;101120.97;5002781;28;103120;-51
2022/10/23 09:15:01;;;;;;;63.22;59.75;;;;;;;15.38;71.82;101129.50;5006068;28;102747;-51
2022/10/23 09:17:30;;;;;;;60.33;56.88;;;;;;;15.39;72.18;101130.31;5005617;28;102113;-50
2022/10/23 09:20:15;;;;;;;61.80;58.20;;;;;;;15.39;71.96;101141.28;5006842;28;104156;-50
2022/10/23 09:22:44;;;;;;;63.90;60.35;;;;;;;15.38;71.80;101134.16;5004020;27;102465;-50
2022/10/23 09:25:17;;;;;;;68.45;64.53;;;;;;;15.39;71.87;101130.31;5012575;27;102177;-51
2022/10/23 09:27:46;;;;;;;63.08;59.40;;;;;;;15.41;72.17;101141.81;5006347;28;104781;-51
2022/10/23 09:30:24;;;;;;;73.85;69.75;;;;;;;15.41;71.82;101144.53;5006659;27;103925;-51
2022/10/23 09:32:53;;;;;;;59.28;55.70;;;;;;;15.43;71.65;101136.81;5007606;28;102283;-50
2022/10/23 09:35:21;;;;;;;66.55;62.83;;;;;;;15.42;72.10;101135.19;5027193;27;103736;-50
2022/10/23 09:37:51;;;;;;;66.10;62.30;;;;;;;15.44;71.74;101135.75;5022292;27;102377;-50
2022/10/23 09:40:24;;;;;;;66.25;62.45;;;;;;;15.43;72.07;101120.38;5020979;27;103880;-50
2022/10/23 09:42:54;;;;;;;66.75;62.85;;;;;;;15.46;72.13;101130.75;5028097;27;102796;-50
2022/10/23 09:45:26;;;;;;;68.32;64.40;;;;;;;15.46;71.68;101119.78;5026987;27;102031;-50
2022/10/23 09:48:11;;;;;;;68.68;64.80;;;;;;;15.48;72.04;101134.03;5024456;28;102433;-50
2022/10/23 09:50:46;;;;;;;66.25;62.30;;;;;;;15.46;71.80;101136.25;5019991;27;103967;-50
2022/10/23 09:53:16;;;;;;;67.72;63.95;;;;;;;15.47;71.58;101148.88;5029083;27;102064;-51
2022/10/23 09:55:51;;;;;;;69.45;65.60;;;;;;;15.48;71.95;101161.47;5018671;27;102469;-51
2022/10/23 09:58:20;;;;;;;64.47;60.85;;;;;;;15.47;71.86;101159.84;5022505;28;102677;-50
2022/10/23 10:00:47;;;;;;;68.80;65.03;;;;;;;15.47;71.69;101156.25;5026116;27;103936;-50
2022/10/23 10:03:19;;;;;;;69.03;65.10;;;;;;;15.47;71.96;101153.50;5020419;28;102065;-51
2022/10/23 10:05:57;;;;;;;65.63;61.67;;;;;;;15.47;71.90;101154.34;5036247;27;102147;-50
2022/10/23 10:08:33;;;;;;;64.37;60.67;;;;;;;15.46;71.63;101158.19;5035172;27;102239;-51
2022/10/23 10:11:04;;;;;;;63.65;59.88;;;;;;;15.48;71.61;101160.66;5028389;27;104076;-51
2022/10/23 10:13:53;;;;;;;60.25;56.75;;;;;;;15.48;71.64;101144.19;5034866;27;102547;-51
2022/10/23 10:16:28;;;;;;;65.17;61.43;;;;;;;15.46;71.80;101152.69;5023246;27;103349;-50
2022/10/23 10:19:05;;;;;;;62.17;58.55;;;;;;;15.49;72.04;101145.81;5028688;28;102162;-51
2022/10/23 10:21:38;;;;;;;67.30;63.53;;;;;;;15.48;71.97;101150.50;5020986;28;103938;-50
2022/10/23 10:24:11;;;;;;;61.22;57.83;;;;;;;15.48;71.68;101144.19;5023409;28;102587;-51
2022/10/23 10:26:43;;;;;;;64.70;60.80;;;;;;;15.48;71.81;101150.50;5021703;27;102308;-51
2022/10/23 10:29:28;;;;;;;70.43;66.53;;;;;;;15.48;72.08;101139.53;5008365;28;102553;-51
2022/10/23 10:32:04;;;;;;;63.53;59.90;;;;;;;15.51;71.80;101149.91;5005632;28;104860;-50
2022/10/23 10:34:42;;;;;;;68.30;64.45;;;;;;;15.49;72.14;101140.34;5010656;28;102512;-50
2022/10/23 10:37:25;;;;;;;71.50;67.50;;;;;;;15.50;71.76;101150.19;5012043;28;104684;-50
2022/10/23 10:39:59;;;;;;;67.00;63.15;;;;;;;15.57;71.99;101147.91;5011811;28;102209;-51
2022/10/23 10:42:57;;;;;;;76.85;71.45;;;;;;;15.62;72.45;101134.94;5006340;28;103845;-49
2022/10/23 10:45:29;;;;;;;75.90;69.78;;;;;;;15.73;72.96;101132.91;5006973;28;103548;-50
2022/10/23 10:48:13;;;;;;;75.93;68.00;;;;;;;15.72;72.60;101131.25;5012325;28;102295;-61
2022/10/23 10:50:47;;;;;;;74.57;67.53;;;;;;;15.73;73.16;101141.16;5015623;28;102502;-56
2022/10/23 10:53:23;;;;;;;71.97;65.18;;;;;;;15.69;73.25;101139.28;5014040;28;103913;-56
2022/10/23 10:55:52;;;;;;;77.25;70.55;;;;;;;15.65;72.83;101135.44;5014948;28;102566;-56
2022/10/23 10:58:27;;;;;;;74.28;68.07;;;;;;;15.60;72.60;101126.19;5028885;27;102388;-56
2022/10/23 11:00:57;;;;;;;75.90;69.25;;;;;;;15.60;72.68;101128.13;5031324;27;102492;-56
2022/10/23 11:03:30;;;;;;;74.15;68.10;;;;;;;15.58;72.65;101127.63;5028455;27;104140;-56
2022/10/23 11:06:01;;;;;;;73.50;67.82;;;;;;;15.58;72.48;101133.91;5031737;27;102395;-56
2022/10/23 11:08:34;;;;;;;77.30;71.57;;;;;;;15.59;72.45;101127.31;5030618;27;102097;-55
2022/10/23 11:11:08;;;;;;;74.90;69.50;;;;;;;15.59;72.38;101124.56;5027471;28;102182;-55
2022/10/23 11:13:36;;;;;;;72.45;67.25;;;;;;;15.60;72.16;101128.94;5019785;28;104079;-55
2022/10/23 11:16:09;;;;;;;71.72;66.60;;;;;;;15.59;72.27;101123.75;5035905;27;102541;-55